createdAt,value
2019-02-21T00:01:40.346Z,7.39
2019-02-21T00:04:15.289Z,7.42
2019-02-21T00:06:49.894Z,7.44
2019-02-21T00:09:23.285Z,7.39
2019-02-21T00:11:57.672Z,7.54
2019-02-21T00:14:32.278Z,7.58
2019-02-21T00:17:06.881Z,7.54
2019-02-21T00:19:40.091Z,7.61
2019-02-21T00:22:14.509Z,7.60
2019-02-21T00:24:49.287Z,7.63
2019-02-21T00:27:23.955Z,7.63
2019-02-21T00:29:58.673Z,7.57
2019-02-21T00:35:20.313Z,7.58
2019-02-21T00:37:55.109Z,7.48
2019-02-21T00:40:30.136Z,7.42
2019-02-21T00:43:05.111Z,7.33
2019-02-21T00:45:39.738Z,7.33
2019-02-21T00:48:15.708Z,7.33
2019-02-21T00:50:50.233Z,7.29
2019-02-21T00:53:24.710Z,7.18
2019-02-21T00:55:59.320Z,7.18
2019-02-21T00:58:33.935Z,7.10
2019-02-21T01:01:08.385Z,7.13
2019-02-21T01:03:42.792Z,6.83
2019-02-21T01:06:16.515Z,6.83
2019-02-21T01:08:51.293Z,6.74
2019-02-21T01:11:27.763Z,6.68
2019-02-21T01:14:01.288Z,6.71
2019-02-21T01:16:36.675Z,6.55
2019-02-21T01:19:11.311Z,6.55
2019-02-21T01:21:45.706Z,6.62
2019-02-21T01:24:20.294Z,6.66
2019-02-21T01:26:54.722Z,6.73
2019-02-21T01:29:29.284Z,6.73
2019-02-21T01:32:03.954Z,6.73
2019-02-21T01:34:38.360Z,6.72
2019-02-21T01:37:12.744Z,6.79
2019-02-21T01:39:47.294Z,6.84
2019-02-21T01:42:21.700Z,6.88
2019-02-21T01:44:56.289Z,6.83
2019-02-21T01:47:30.954Z,6.73
2019-02-21T01:50:25.674Z,6.73
2019-02-21T01:53:00.294Z,6.74
2019-02-21T01:55:34.894Z,6.80
2019-02-21T01:58:08.116Z,6.81
2019-02-21T02:00:42.287Z,6.83
2019-02-21T02:03:17.909Z,6.78
2019-02-21T02:05:51.277Z,6.80
2019-02-21T02:08:25.685Z,6.82
2019-02-21T02:11:00.286Z,6.78
2019-02-21T02:13:34.960Z,6.81
2019-02-21T02:16:10.692Z,6.85
2019-02-21T02:18:45.283Z,6.85
2019-02-21T02:21:19.741Z,6.92
2019-02-21T02:23:54.583Z,6.82
2019-02-21T02:26:28.957Z,6.82
2019-02-21T02:29:02.273Z,6.86
2019-02-21T02:31:36.673Z,6.79
2019-02-21T02:34:11.283Z,6.79
2019-02-21T02:36:45.681Z,6.77
2019-02-21T02:39:20.688Z,6.77
2019-02-21T02:41:55.677Z,6.80
2019-02-21T02:44:30.682Z,6.84
2019-02-21T02:47:05.291Z,6.84
2019-02-21T02:49:39.865Z,6.88
2019-02-21T02:52:13.294Z,6.84
2019-02-21T02:54:47.733Z,6.85
2019-02-21T02:57:22.257Z,6.78
2019-02-21T02:59:56.993Z,6.77
2019-02-21T03:02:31.655Z,6.71
2019-02-21T03:05:06.582Z,6.70
2019-02-21T03:07:41.131Z,6.69
2019-02-21T03:10:15.744Z,6.64
2019-02-21T03:12:50.318Z,6.57
2019-02-21T03:15:24.943Z,6.62
2019-02-21T03:17:59.321Z,6.58
2019-02-21T03:20:34.291Z,6.56
2019-02-21T03:23:08.881Z,6.62
2019-02-21T03:25:42.126Z,6.62
2019-02-21T03:28:16.315Z,6.52
2019-02-21T03:30:50.940Z,6.45
2019-02-21T03:33:25.323Z,6.39
2019-02-21T03:36:00.317Z,6.40
2019-02-21T03:38:35.854Z,6.33
2019-02-21T03:41:09.072Z,6.34
2019-02-21T03:43:42.273Z,6.33
2019-02-21T03:46:16.678Z,6.33
2019-02-21T03:48:51.600Z,6.30
2019-02-21T03:51:26.294Z,6.23
2019-02-21T03:54:01.279Z,6.17
2019-02-21T03:56:35.878Z,6.13
2019-02-21T03:59:09.299Z,6.14
2019-02-21T04:01:43.668Z,6.02
2019-02-21T04:04:18.326Z,6.02
2019-02-21T04:06:53.332Z,6.12
2019-02-21T04:09:27.899Z,6.11
2019-02-21T04:12:01.279Z,6.11
2019-02-21T04:14:35.948Z,6.18
2019-02-21T04:17:09.555Z,6.18
2019-02-21T04:19:43.970Z,6.21
2019-02-21T04:22:19.712Z,6.23
2019-02-21T04:24:54.339Z,6.23
2019-02-21T04:27:29.223Z,6.28
2019-02-21T04:30:03.768Z,6.33
2019-02-21T04:32:37.116Z,6.33
2019-02-21T04:35:11.689Z,6.26
2019-02-21T04:37:46.278Z,6.26
2019-02-21T04:40:20.878Z,6.31
2019-02-21T04:42:54.108Z,6.37
2019-02-21T04:45:28.659Z,6.37
2019-02-21T04:48:03.259Z,6.33
2019-02-21T04:50:37.717Z,6.33
2019-02-21T04:53:12.268Z,6.28
2019-02-21T04:55:46.897Z,6.29
2019-02-21T04:58:19.866Z,6.31
2019-02-21T05:00:55.094Z,6.34
2019-02-21T05:03:29.802Z,6.37
2019-02-21T05:06:03.288Z,6.37
2019-02-21T05:08:37.683Z,6.34
2019-02-21T05:11:12.676Z,6.34
2019-02-21T05:13:47.289Z,6.36
2019-02-21T05:16:21.736Z,6.30
2019-02-21T05:18:58.730Z,6.28
2019-02-21T05:21:33.298Z,6.28
2019-02-21T05:24:07.804Z,6.27
2019-02-21T05:26:48.278Z,6.36
2019-02-21T05:29:22.798Z,6.48
2019-02-21T05:32:10.602Z,6.48
2019-02-21T05:35:00.651Z,6.44
2019-02-21T05:37:57.788Z,6.47
2019-02-21T05:40:51.775Z,6.60
2019-02-21T05:43:46.864Z,6.66
2019-02-21T05:46:41.958Z,6.88
2019-02-21T05:49:46.998Z,6.88
2019-02-21T05:52:46.312Z,6.95
2019-02-21T05:56:09.953Z,7.05
2019-02-21T05:59:18.677Z,7.15
2019-02-21T06:02:16.879Z,7.14
2019-02-21T06:05:19.614Z,7.17
2019-02-21T06:08:19.278Z,7.16
2019-02-21T06:11:36.679Z,7.15
2019-02-21T06:14:45.722Z,7.13
2019-02-21T06:18:12.291Z,7.11
2019-02-21T06:21:26.408Z,7.16
2019-02-21T06:24:41.867Z,7.16
2019-02-21T06:27:38.464Z,7.16
2019-02-21T06:30:47.129Z,7.18
2019-02-21T06:33:39.332Z,7.25
2019-02-21T06:36:31.319Z,7.23
2019-02-21T06:39:25.157Z,7.37
2019-02-21T06:42:17.743Z,7.37
2019-02-21T06:45:09.110Z,7.32
2019-02-21T06:48:00.292Z,7.24
2019-02-21T06:50:52.288Z,7.32
2019-02-21T06:53:44.702Z,7.34
2019-02-21T06:56:37.330Z,7.38
2019-02-21T06:59:29.319Z,7.34
2019-02-21T07:02:22.294Z,7.44
2019-02-21T07:05:14.672Z,7.45
2019-02-21T07:08:08.840Z,7.45
2019-02-21T07:11:06.216Z,7.54
2019-02-21T07:13:55.757Z,7.59
2019-02-21T07:16:47.821Z,7.56
2019-02-21T07:19:39.092Z,7.56
2019-02-21T07:22:31.580Z,7.63
2019-02-21T07:25:32.352Z,7.57
2019-02-21T07:28:23.046Z,7.62
2019-02-21T07:31:14.022Z,7.65
2019-02-21T07:34:07.139Z,7.63
2019-02-21T07:36:59.415Z,7.63
2019-02-21T07:39:51.882Z,7.73
2019-02-21T07:42:44.612Z,7.80
2019-02-21T07:45:37.281Z,7.88
2019-02-21T07:48:29.700Z,8.05
2019-02-21T07:51:21.800Z,8.05
2019-02-21T07:54:15.375Z,8.10
2019-02-21T07:57:08.640Z,8.28
2019-02-21T08:00:02.281Z,8.29
2019-02-21T08:02:54.666Z,8.26
2019-02-21T08:05:47.599Z,8.26
2019-02-21T08:08:40.337Z,8.46
2019-02-21T08:11:32.680Z,8.51
2019-02-21T08:14:24.955Z,8.72
2019-02-21T08:17:17.644Z,8.81
2019-02-21T08:20:11.679Z,8.81
2019-02-21T08:23:04.259Z,8.71
2019-02-21T08:25:56.271Z,8.74
2019-02-21T08:28:48.679Z,8.79
2019-02-21T08:31:40.279Z,8.84
2019-02-21T08:34:39.796Z,8.67
2019-02-21T08:37:31.787Z,8.71
2019-02-21T08:40:25.111Z,8.72
2019-02-21T08:43:18.106Z,8.69
2019-02-21T08:46:10.754Z,8.69
2019-02-21T08:49:02.949Z,8.80
2019-02-21T08:51:55.152Z,8.80
2019-02-21T08:54:45.863Z,8.69
2019-02-21T08:57:38.293Z,8.63
2019-02-21T09:00:31.743Z,8.63
2019-02-21T09:03:24.287Z,8.99
2019-02-21T09:06:17.128Z,8.99
2019-02-21T09:09:09.693Z,9.10
2019-02-21T09:12:02.458Z,9.18
2019-02-21T09:14:55.281Z,9.25
2019-02-21T09:17:47.658Z,9.14
2019-02-21T09:20:41.356Z,9.14
2019-02-21T09:23:33.731Z,8.84
2019-02-21T09:26:25.943Z,8.84
2019-02-21T09:29:18.309Z,8.92
2019-02-21T09:32:11.319Z,9.07
2019-02-21T09:35:03.310Z,9.12
2019-02-21T09:37:55.341Z,9.06
2019-02-21T09:40:47.787Z,8.91
2019-02-21T09:43:40.276Z,8.91
2019-02-21T09:46:32.676Z,8.89
2019-02-21T09:49:24.691Z,9.05
2019-02-21T09:52:16.773Z,9.05
2019-02-21T09:55:10.276Z,9.02
2019-02-21T09:58:02.319Z,9.09
2019-02-21T10:00:54.949Z,9.10
2019-02-21T10:03:47.646Z,9.11
2019-02-21T10:06:39.937Z,9.11
2019-02-21T10:09:33.297Z,9.09
2019-02-21T10:12:25.657Z,9.18
2019-02-21T10:15:18.645Z,9.02
2019-02-21T10:18:11.243Z,9.04
2019-02-21T10:21:03.276Z,9.14
2019-02-21T10:23:56.872Z,9.20
2019-02-21T10:26:49.688Z,9.02
2019-02-21T10:29:42.322Z,9.02
2019-02-21T10:32:35.113Z,9.09
2019-02-21T10:35:26.282Z,9.05
2019-02-21T10:38:18.290Z,9.03
2019-02-21T10:41:10.657Z,9.44
2019-02-21T10:44:03.247Z,9.44
2019-02-21T10:46:55.789Z,9.77
2019-02-21T10:49:47.746Z,9.77
2019-02-21T10:52:41.585Z,9.75
2019-02-21T10:55:33.270Z,9.62
2019-02-21T10:58:25.271Z,9.45
2019-02-21T11:01:17.277Z,9.45
2019-02-21T11:04:09.688Z,9.37
2019-02-21T11:07:02.273Z,9.37
2019-02-21T11:09:54.694Z,9.52
2019-02-21T11:12:47.280Z,9.52
2019-02-21T11:15:42.052Z,9.73
2019-02-21T11:18:33.936Z,10.32
2019-02-21T11:21:27.557Z,10.32
2019-02-21T11:24:20.258Z,10.46
2019-02-21T11:27:12.139Z,10.78
2019-02-21T11:30:03.281Z,10.78
2019-02-21T11:32:54.249Z,10.82
2019-02-21T11:35:46.424Z,10.67
2019-02-21T11:38:38.882Z,10.84
2019-02-21T11:41:31.582Z,10.99
2019-02-21T11:44:23.643Z,11.39
2019-02-21T11:47:15.738Z,11.39
2019-02-21T11:50:08.672Z,11.63
2019-02-21T11:53:00.956Z,11.63
2019-02-21T11:55:52.040Z,11.68
2019-02-21T11:58:42.997Z,11.79
2019-02-21T12:01:35.282Z,11.76
2019-02-21T12:04:27.730Z,11.99
2019-02-21T12:07:20.349Z,11.99
2019-02-21T12:10:13.313Z,11.63
2019-02-21T12:13:05.954Z,11.43
2019-02-21T12:15:59.130Z,11.38
2019-02-21T12:18:51.761Z,11.11
2019-02-21T12:21:44.279Z,11.19
2019-02-21T12:24:37.270Z,11.25
2019-02-21T12:27:29.281Z,11.36
2019-02-21T12:30:22.407Z,11.66
2019-02-21T12:33:14.857Z,11.67
2019-02-21T12:36:07.270Z,11.63
2019-02-21T12:38:59.126Z,11.70
2019-02-21T12:41:51.811Z,11.59
2019-02-21T12:44:44.930Z,11.58
2019-02-21T12:47:49.091Z,11.57
2019-02-21T12:50:43.682Z,11.43
2019-02-21T12:53:28.246Z,11.31
2019-02-21T12:56:20.678Z,11.18
2019-02-21T12:59:14.279Z,11.18
2019-02-21T13:02:06.728Z,11.04
2019-02-21T13:04:58.001Z,11.04
2019-02-21T13:07:48.862Z,10.98
2019-02-21T13:10:40.936Z,11.01
2019-02-21T13:13:33.282Z,10.89
2019-02-21T13:16:26.278Z,10.78
2019-02-21T13:19:18.676Z,10.88
2019-02-21T13:22:10.950Z,10.88
2019-02-21T13:25:03.338Z,10.98
2019-02-21T13:27:56.137Z,10.86
2019-02-21T13:30:48.581Z,10.93
2019-02-21T13:33:40.922Z,10.93
2019-02-21T13:36:33.998Z,10.73
2019-02-21T13:39:25.085Z,10.66
2019-02-21T13:42:17.271Z,11.01
2019-02-21T13:45:10.683Z,11.01
2019-02-21T13:48:03.281Z,10.89
2019-02-21T13:50:55.679Z,11.16
2019-02-21T13:53:47.991Z,11.16
2019-02-21T13:56:40.638Z,11.45
2019-02-21T14:00:39.695Z,11.47
2019-02-21T14:03:32.296Z,11.56
2019-02-21T14:06:25.120Z,11.71
2019-02-21T14:09:17.545Z,11.95
2019-02-21T14:12:10.286Z,11.95
2019-02-21T14:15:00.689Z,12.50
2019-02-21T14:17:52.753Z,12.65
2019-02-21T14:20:45.763Z,12.49
2019-02-21T14:23:37.650Z,12.38
2019-02-21T14:26:29.889Z,12.38
2019-02-21T14:29:22.313Z,12.34
2019-02-21T14:32:15.285Z,12.09
2019-02-21T14:35:08.885Z,12.08
2019-02-21T14:38:00.115Z,11.78
2019-02-21T14:40:52.276Z,11.75
2019-02-21T14:43:44.679Z,11.52
2019-02-21T14:46:36.579Z,11.32
2019-02-21T14:49:29.344Z,11.09
2019-02-21T14:52:21.943Z,10.98
2019-02-21T14:55:13.561Z,11.09
2019-02-21T14:58:05.890Z,11.20
2019-02-21T15:00:58.608Z,11.33
2019-02-21T15:03:50.678Z,11.39
2019-02-21T15:06:43.587Z,11.39
2019-02-21T15:09:36.333Z,11.35
2019-02-21T15:12:29.126Z,11.04
2019-02-21T15:15:22.119Z,10.86
2019-02-21T15:18:15.289Z,10.81
2019-02-21T15:21:08.118Z,10.67
2019-02-21T15:25:59.981Z,10.68
2019-02-21T15:28:52.764Z,10.68
2019-02-21T15:31:45.949Z,10.71
2019-02-21T15:34:38.291Z,10.76
2019-02-21T15:37:30.945Z,10.80
2019-02-21T15:40:23.297Z,10.89
2019-02-21T15:45:09.643Z,11.14
2019-02-21T15:48:01.775Z,11.04
2019-02-21T15:50:53.951Z,11.02
2019-02-21T15:53:46.273Z,11.13
2019-02-21T15:56:39.135Z,10.98
2019-02-21T15:59:31.680Z,10.93
2019-02-21T16:02:23.936Z,10.87
2019-02-21T16:05:15.267Z,10.69
2019-02-21T16:08:09.268Z,10.81
2019-02-21T16:11:04.232Z,10.78
2019-02-21T16:14:03.241Z,10.75
2019-02-21T16:17:26.778Z,10.82
2019-02-21T16:20:19.323Z,10.74
2019-02-21T16:23:13.290Z,10.72
2019-02-21T16:28:33.701Z,10.73
2019-02-21T16:31:27.309Z,10.69
2019-02-21T16:34:20.354Z,10.71
2019-02-21T16:37:12.882Z,10.56
2019-02-21T16:40:04.270Z,10.51
2019-02-21T16:42:56.594Z,10.47
2019-02-21T16:45:53.662Z,10.54
2019-02-21T16:51:27.898Z,10.48
2019-02-21T16:54:20.152Z,10.48
2019-02-21T16:57:12.669Z,10.40
2019-02-21T17:00:05.329Z,10.46
2019-02-21T17:02:59.279Z,10.46
2019-02-21T17:05:51.333Z,10.42
2019-02-21T17:08:43.302Z,10.37
2019-02-21T17:11:36.354Z,10.26
2019-02-21T17:14:28.793Z,10.38
2019-02-21T17:17:21.315Z,10.32
2019-02-21T17:20:16.110Z,10.36
2019-02-21T17:23:07.046Z,10.24
2019-02-21T17:25:59.277Z,10.24
2019-02-21T17:28:52.544Z,10.34
2019-02-21T17:32:06.340Z,10.32
2019-02-21T17:34:58.953Z,10.42
2019-02-21T17:37:50.926Z,10.42
2019-02-21T17:40:42.967Z,10.43
2019-02-21T17:43:35.301Z,10.39
2019-02-21T17:46:27.334Z,10.48
2019-02-21T17:49:18.421Z,10.39
2019-02-21T17:52:10.674Z,10.09
2019-02-21T17:55:02.739Z,10.09
2019-02-21T17:57:55.887Z,10.06
2019-02-21T18:00:48.280Z,9.97
2019-02-21T18:03:40.283Z,9.74
2019-02-21T18:06:30.858Z,9.65
2019-02-21T18:09:22.068Z,9.62
2019-02-21T18:12:14.264Z,9.50
2019-02-21T18:15:06.946Z,9.28
2019-02-21T18:17:59.128Z,9.04
2019-02-21T18:20:51.349Z,8.92
2019-02-21T18:23:43.704Z,8.77
2019-02-21T18:26:36.265Z,8.68
2019-02-21T18:29:28.673Z,8.51
2019-02-21T18:32:22.336Z,8.51
2019-02-21T18:35:14.527Z,8.47
2019-02-21T18:38:06.781Z,8.46
2019-02-21T18:40:59.282Z,8.58
2019-02-21T18:43:51.665Z,8.40
2019-02-21T18:46:44.279Z,8.40
2019-02-21T18:49:36.721Z,8.47
2019-02-21T18:52:28.952Z,8.47
2019-02-21T18:55:21.681Z,8.44
2019-02-21T18:58:13.784Z,8.45
2019-02-21T19:01:07.312Z,8.45
2019-02-21T19:04:00.438Z,8.53
2019-02-21T19:06:52.779Z,8.60
2019-02-21T19:09:43.695Z,8.55
2019-02-21T19:12:36.421Z,8.62
2019-02-21T19:15:29.944Z,8.60
2019-02-21T19:18:24.210Z,8.60
2019-02-21T19:21:15.888Z,8.55
2019-02-21T19:24:08.290Z,8.55
2019-02-21T19:27:00.685Z,8.65
2019-02-21T19:29:54.089Z,8.60
2019-02-21T19:32:47.720Z,8.61
2019-02-21T19:35:39.931Z,8.67
2019-02-21T19:38:33.278Z,8.70
2019-02-21T19:41:25.703Z,8.69
2019-02-21T19:44:18.277Z,8.69
2019-02-21T19:47:10.884Z,8.58
2019-02-21T19:50:04.280Z,8.57
2019-02-21T19:52:56.928Z,8.65
2019-02-21T19:58:36.867Z,8.73
2019-02-21T20:01:27.858Z,8.66
2019-02-21T20:04:19.941Z,8.72
2019-02-21T20:07:12.267Z,8.70
2019-02-21T20:10:06.324Z,8.70
2019-02-21T20:13:01.280Z,8.68
2019-02-21T20:15:52.012Z,8.68
2019-02-21T20:18:44.384Z,8.72
2019-02-21T20:21:36.754Z,8.81
2019-02-21T20:24:29.126Z,8.81
2019-02-21T20:27:20.069Z,8.79
2019-02-21T20:30:15.787Z,8.96
2019-02-21T20:33:08.099Z,8.87
2019-02-21T20:36:00.462Z,8.87
2019-02-21T20:38:53.447Z,8.94
2019-02-21T20:41:46.777Z,8.94
2019-02-21T20:44:39.291Z,8.94
2019-02-21T20:47:31.897Z,8.89
2019-02-21T20:50:23.008Z,8.90
2019-02-21T20:53:15.980Z,8.90
2019-02-21T20:57:16.952Z,8.93
2019-02-21T21:00:12.355Z,8.86
2019-02-21T21:03:05.310Z,8.93
2019-02-21T21:05:58.109Z,8.94
2019-02-21T21:08:50.350Z,8.91
2019-02-21T21:11:42.928Z,8.95
2019-02-21T21:14:35.099Z,9.06
2019-02-21T21:17:25.793Z,9.18
2019-02-21T21:20:18.503Z,9.18
2019-02-21T21:23:10.939Z,9.11
2019-02-21T21:26:03.303Z,9.11
2019-02-21T21:28:55.822Z,9.18
2019-02-21T21:31:47.398Z,9.18
2019-02-21T21:34:38.281Z,9.12
2019-02-21T21:37:30.899Z,9.01
2019-02-21T21:40:22.418Z,8.98
2019-02-21T21:43:15.555Z,8.99
2019-02-21T21:46:08.288Z,8.99
2019-02-21T22:03:39.969Z,8.71
2019-02-21T22:06:32.784Z,8.71
2019-02-21T22:09:25.534Z,8.73
2019-02-21T22:12:19.304Z,8.60
2019-02-21T22:15:12.395Z,8.57
2019-02-21T22:18:04.771Z,8.49
2019-02-21T22:20:56.756Z,8.49
2019-02-21T22:23:49.294Z,8.41
2019-02-21T22:26:41.779Z,8.47
2019-02-21T22:29:34.316Z,8.47
2019-02-21T22:32:26.751Z,8.52
2019-02-21T22:35:19.326Z,8.62
2019-02-21T22:38:12.081Z,8.70
2019-02-21T22:41:03.269Z,8.65
2019-02-21T22:43:55.963Z,8.80
2019-02-21T22:46:48.525Z,8.80
2019-02-21T22:49:41.374Z,8.89
2019-02-21T22:52:33.956Z,8.92
2019-02-21T22:55:10.267Z,8.92
2019-02-21T22:57:44.963Z,8.96
2019-02-21T23:01:01.057Z,9.02
2019-02-21T23:04:23.290Z,9.04
2019-02-21T23:07:47.705Z,9.02
2019-02-21T23:10:22.469Z,9.01
2019-02-21T23:12:57.295Z,9.09
2019-02-21T23:15:33.122Z,9.01
2019-02-21T23:18:07.964Z,8.96
2019-02-21T23:20:42.363Z,8.96
2019-02-21T23:23:17.288Z,9.08
2019-02-21T23:25:51.691Z,8.97
2019-02-21T23:28:26.291Z,9.04
2019-02-21T23:31:00.966Z,9.10
2019-02-21T23:33:36.294Z,9.09
2019-02-21T23:36:10.653Z,9.02
2019-02-21T23:38:45.267Z,9.02
2019-02-21T23:41:19.719Z,8.98
2019-02-21T23:43:52.879Z,8.96
2019-02-21T23:46:27.288Z,8.99
2019-02-21T23:49:01.979Z,8.98
2019-02-21T23:51:36.676Z,9.08
2019-02-21T23:54:11.283Z,9.08
2019-02-21T23:56:45.753Z,9.05
2019-02-21T23:59:21.416Z,9.05
